sensor_id;sensor_type;location;lat;lon;timestamp;P1;durP1;ratioP1;P2;durP2;ratioP2
61897;SDS011;47850;50.274;18.908;2023-07-31T00:01:25;8.60;;;3.40;;
61897;SDS011;47850;50.274;18.908;2023-07-31T00:03:53;4.70;;;3.50;;
61897;SDS011;47850;50.274;18.908;2023-07-31T00:06:21;4.90;;;3.30;;
61897;SDS011;47850;50.274;18.908;2023-07-31T00:08:49;6.90;;;3.80;;
61897;SDS011;47850;50.274;18.908;2023-07-31T00:11:17;8.40;;;3.90;;
61897;SDS011;47850;50.274;18.908;2023-07-31T00:13:45;6.40;;;4.10;;
61897;SDS011;47850;50.274;18.908;2023-07-31T00:16:13;5.70;;;3.70;;
61897;SDS011;47850;50.274;18.908;2023-07-31T00:18:41;7.10;;;4.00;;
61897;SDS011;47850;50.274;18.908;2023-07-31T00:21:08;6.70;;;3.70;;
61897;SDS011;47850;50.274;18.908;2023-07-31T00:23:36;7.70;;;3.90;;
61897;SDS011;47850;50.274;18.908;2023-07-31T00:26:04;7.00;;;4.10;;
61897;SDS011;47850;50.274;18.908;2023-07-31T00:28:32;6.60;;;4.00;;
61897;SDS011;47850;50.274;18.908;2023-07-31T00:30:59;8.40;;;4.20;;
61897;SDS011;47850;50.274;18.908;2023-07-31T00:33:27;8.00;;;4.90;;
61897;SDS011;47850;50.274;18.908;2023-07-31T00:35:55;7.30;;;4.50;;
61897;SDS011;47850;50.274;18.908;2023-07-31T00:38:23;7.30;;;3.80;;
61897;SDS011;47850;50.274;18.908;2023-07-31T00:40:51;6.80;;;3.90;;
61897;SDS011;47850;50.274;18.908;2023-07-31T00:43:18;6.60;;;3.30;;
61897;SDS011;47850;50.274;18.908;2023-07-31T00:45:46;5.50;;;3.70;;
61897;SDS011;47850;50.274;18.908;2023-07-31T00:48:14;6.60;;;3.30;;
61897;SDS011;47850;50.274;18.908;2023-07-31T00:50:42;4.60;;;3.00;;
61897;SDS011;47850;50.274;18.908;2023-07-31T00:53:10;4.50;;;2.70;;
61897;SDS011;47850;50.274;18.908;2023-07-31T00:55:38;3.20;;;2.70;;
61897;SDS011;47850;50.274;18.908;2023-07-31T00:58:06;3.80;;;2.50;;
61897;SDS011;47850;50.274;18.908;2023-07-31T01:00:34;3.60;;;2.60;;
61897;SDS011;47850;50.274;18.908;2023-07-31T01:03:02;4.60;;;2.60;;
61897;SDS011;47850;50.274;18.908;2023-07-31T01:05:33;4.80;;;2.70;;
61897;SDS011;47850;50.274;18.908;2023-07-31T01:08:12;3.80;;;2.20;;
61897;SDS011;47850;50.274;18.908;2023-07-31T01:10:54;5.00;;;3.10;;
61897;SDS011;47850;50.274;18.908;2023-07-31T01:13:28;4.70;;;3.60;;
61897;SDS011;47850;50.274;18.908;2023-07-31T01:15:56;5.20;;;3.30;;
61897;SDS011;47850;50.274;18.908;2023-07-31T01:18:24;4.70;;;2.70;;
61897;SDS011;47850;50.274;18.908;2023-07-31T01:20:54;4.30;;;2.20;;
61897;SDS011;47850;50.274;18.908;2023-07-31T01:26:44;2.70;;;2.20;;
61897;SDS011;47850;50.274;18.908;2023-07-31T01:29:23;4.10;;;2.50;;
61897;SDS011;47850;50.274;18.908;2023-07-31T01:32:00;4.60;;;2.70;;
61897;SDS011;47850;50.274;18.908;2023-07-31T01:34:30;7.70;;;2.50;;
61897;SDS011;47850;50.274;18.908;2023-07-31T01:36:59;5.00;;;2.70;;
61897;SDS011;47850;50.274;18.908;2023-07-31T01:39:27;3.90;;;2.30;;
61897;SDS011;47850;50.274;18.908;2023-07-31T01:41:55;4.50;;;1.60;;
61897;SDS011;47850;50.274;18.908;2023-07-31T01:44:23;3.70;;;2.30;;
61897;SDS011;47850;50.274;18.908;2023-07-31T01:46:50;3.60;;;2.00;;
61897;SDS011;47850;50.274;18.908;2023-07-31T01:49:18;2.70;;;1.80;;
61897;SDS011;47850;50.274;18.908;2023-07-31T01:51:46;3.90;;;1.90;;
61897;SDS011;47850;50.274;18.908;2023-07-31T01:54:14;3.90;;;2.10;;
61897;SDS011;47850;50.274;18.908;2023-07-31T01:56:41;2.70;;;2.20;;
61897;SDS011;47850;50.274;18.908;2023-07-31T01:59:09;3.50;;;2.30;;
61897;SDS011;47850;50.274;18.908;2023-07-31T02:01:39;3.30;;;2.00;;
61897;SDS011;47850;50.274;18.908;2023-07-31T02:04:07;3.70;;;1.70;;
61897;SDS011;47850;50.274;18.908;2023-07-31T02:06:35;4.10;;;1.90;;
61897;SDS011;47850;50.274;18.908;2023-07-31T02:09:02;2.70;;;1.80;;
61897;SDS011;47850;50.274;18.908;2023-07-31T02:11:31;2.80;;;2.00;;
61897;SDS011;47850;50.274;18.908;2023-07-31T02:13:58;2.80;;;2.20;;
61897;SDS011;47850;50.274;18.908;2023-07-31T02:16:26;2.80;;;1.70;;
61897;SDS011;47850;50.274;18.908;2023-07-31T02:18:54;3.30;;;2.00;;
61897;SDS011;47850;50.274;18.908;2023-07-31T02:21:24;3.00;;;2.20;;
61897;SDS011;47850;50.274;18.908;2023-07-31T02:23:51;3.10;;;2.00;;
61897;SDS011;47850;50.274;18.908;2023-07-31T02:26:19;4.10;;;2.00;;
61897;SDS011;47850;50.274;18.908;2023-07-31T02:28:47;4.00;;;2.10;;
61897;SDS011;47850;50.274;18.908;2023-07-31T02:31:15;2.40;;;1.80;;
61897;SDS011;47850;50.274;18.908;2023-07-31T02:33:42;3.20;;;2.10;;
61897;SDS011;47850;50.274;18.908;2023-07-31T02:36:10;4.90;;;2.80;;
61897;SDS011;47850;50.274;18.908;2023-07-31T02:38:38;3.50;;;2.40;;
61897;SDS011;47850;50.274;18.908;2023-07-31T02:41:06;5.00;;;2.70;;
61897;SDS011;47850;50.274;18.908;2023-07-31T02:43:33;4.10;;;2.20;;
61897;SDS011;47850;50.274;18.908;2023-07-31T02:46:01;7.90;;;2.70;;
61897;SDS011;47850;50.274;18.908;2023-07-31T02:48:29;4.30;;;2.70;;
61897;SDS011;47850;50.274;18.908;2023-07-31T02:50:57;3.70;;;2.90;;
61897;SDS011;47850;50.274;18.908;2023-07-31T02:53:24;4.30;;;3.00;;
61897;SDS011;47850;50.274;18.908;2023-07-31T02:55:52;4.00;;;2.70;;
61897;SDS011;47850;50.274;18.908;2023-07-31T02:58:20;4.10;;;2.30;;
61897;SDS011;47850;50.274;18.908;2023-07-31T03:00:48;6.20;;;2.30;;
61897;SDS011;47850;50.274;18.908;2023-07-31T03:03:16;2.80;;;2.00;;
61897;SDS011;47850;50.274;18.908;2023-07-31T03:05:43;2.70;;;1.90;;
61897;SDS011;47850;50.274;18.908;2023-07-31T03:08:11;4.40;;;2.20;;
61897;SDS011;47850;50.274;18.908;2023-07-31T03:10:39;5.40;;;2.30;;
61897;SDS011;47850;50.274;18.908;2023-07-31T03:13:07;4.60;;;2.20;;
61897;SDS011;47850;50.274;18.908;2023-07-31T03:15:34;6.30;;;2.30;;
61897;SDS011;47850;50.274;18.908;2023-07-31T03:18:04;2.90;;;2.10;;
61897;SDS011;47850;50.274;18.908;2023-07-31T03:20:32;6.20;;;2.50;;
61897;SDS011;47850;50.274;18.908;2023-07-31T03:23:00;3.90;;;2.30;;
61897;SDS011;47850;50.274;18.908;2023-07-31T03:25:28;5.10;;;2.50;;
61897;SDS011;47850;50.274;18.908;2023-07-31T03:27:55;7.00;;;2.40;;
61897;SDS011;47850;50.274;18.908;2023-07-31T03:30:23;10.40;;;2.90;;
61897;SDS011;47850;50.274;18.908;2023-07-31T03:32:54;4.00;;;2.90;;
61897;SDS011;47850;50.274;18.908;2023-07-31T03:35:22;6.30;;;2.70;;
61897;SDS011;47850;50.274;18.908;2023-07-31T03:37:50;5.30;;;2.40;;
61897;SDS011;47850;50.274;18.908;2023-07-31T03:40:17;6.60;;;2.40;;
61897;SDS011;47850;50.274;18.908;2023-07-31T03:42:45;5.40;;;2.70;;
61897;SDS011;47850;50.274;18.908;2023-07-31T03:45:13;3.60;;;2.50;;
61897;SDS011;47850;50.274;18.908;2023-07-31T03:47:41;4.30;;;2.50;;
61897;SDS011;47850;50.274;18.908;2023-07-31T03:50:09;3.90;;;2.50;;
61897;SDS011;47850;50.274;18.908;2023-07-31T03:52:37;3.70;;;2.60;;
61897;SDS011;47850;50.274;18.908;2023-07-31T03:55:05;6.80;;;3.00;;
61897;SDS011;47850;50.274;18.908;2023-07-31T03:57:32;5.30;;;2.30;;
61897;SDS011;47850;50.274;18.908;2023-07-31T04:00:00;6.60;;;2.70;;
61897;SDS011;47850;50.274;18.908;2023-07-31T04:02:28;6.50;;;2.50;;
61897;SDS011;47850;50.274;18.908;2023-07-31T04:04:56;7.40;;;2.60;;
61897;SDS011;47850;50.274;18.908;2023-07-31T04:07:24;4.40;;;2.70;;
61897;SDS011;47850;50.274;18.908;2023-07-31T04:09:52;7.90;;;2.40;;
61897;SDS011;47850;50.274;18.908;2023-07-31T04:12:20;2.90;;;2.20;;
61897;SDS011;47850;50.274;18.908;2023-07-31T04:14:47;3.10;;;2.10;;
61897;SDS011;47850;50.274;18.908;2023-07-31T04:17:15;4.20;;;2.40;;
61897;SDS011;47850;50.274;18.908;2023-07-31T04:19:45;5.10;;;2.00;;
61897;SDS011;47850;50.274;18.908;2023-07-31T04:22:13;3.90;;;2.30;;
61897;SDS011;47850;50.274;18.908;2023-07-31T04:24:40;5.50;;;1.90;;
61897;SDS011;47850;50.274;18.908;2023-07-31T04:27:08;3.20;;;1.90;;
61897;SDS011;47850;50.274;18.908;2023-07-31T04:29:36;4.10;;;2.20;;
61897;SDS011;47850;50.274;18.908;2023-07-31T04:32:04;4.70;;;2.30;;
61897;SDS011;47850;50.274;18.908;2023-07-31T04:34:32;4.70;;;2.40;;
61897;SDS011;47850;50.274;18.908;2023-07-31T04:37:00;5.00;;;2.50;;
61897;SDS011;47850;50.274;18.908;2023-07-31T04:39:27;5.90;;;3.20;;
61897;SDS011;47850;50.274;18.908;2023-07-31T04:41:55;6.50;;;3.00;;
61897;SDS011;47850;50.274;18.908;2023-07-31T04:44:23;3.10;;;2.10;;
61897;SDS011;47850;50.274;18.908;2023-07-31T04:46:51;3.30;;;1.90;;
61897;SDS011;47850;50.274;18.908;2023-07-31T04:49:19;4.90;;;2.10;;
61897;SDS011;47850;50.274;18.908;2023-07-31T04:51:47;3.50;;;2.10;;
61897;SDS011;47850;50.274;18.908;2023-07-31T04:54:14;6.10;;;2.40;;
61897;SDS011;47850;50.274;18.908;2023-07-31T04:56:42;6.50;;;2.60;;
61897;SDS011;47850;50.274;18.908;2023-07-31T04:59:10;5.10;;;2.00;;
61897;SDS011;47850;50.274;18.908;2023-07-31T05:01:38;4.90;;;2.30;;
61897;SDS011;47850;50.274;18.908;2023-07-31T05:04:06;3.60;;;2.10;;
61897;SDS011;47850;50.274;18.908;2023-07-31T05:06:33;4.80;;;1.90;;
61897;SDS011;47850;50.274;18.908;2023-07-31T05:09:01;3.90;;;1.90;;
61897;SDS011;47850;50.274;18.908;2023-07-31T05:11:29;4.10;;;2.30;;
61897;SDS011;47850;50.274;18.908;2023-07-31T05:13:57;5.40;;;2.10;;
61897;SDS011;47850;50.274;18.908;2023-07-31T05:16:24;5.10;;;2.10;;
61897;SDS011;47850;50.274;18.908;2023-07-31T05:18:52;5.20;;;1.90;;
61897;SDS011;47850;50.274;18.908;2023-07-31T05:21:20;4.20;;;1.90;;
61897;SDS011;47850;50.274;18.908;2023-07-31T05:23:48;5.60;;;2.00;;
61897;SDS011;47850;50.274;18.908;2023-07-31T05:26:19;5.00;;;2.00;;
61897;SDS011;47850;50.274;18.908;2023-07-31T05:28:47;3.00;;;1.70;;
61897;SDS011;47850;50.274;18.908;2023-07-31T05:31:14;5.70;;;1.70;;
61897;SDS011;47850;50.274;18.908;2023-07-31T05:33:42;5.20;;;2.10;;
61897;SDS011;47850;50.274;18.908;2023-07-31T05:36:10;3.20;;;1.60;;
61897;SDS011;47850;50.274;18.908;2023-07-31T05:38:38;4.90;;;1.90;;
61897;SDS011;47850;50.274;18.908;2023-07-31T05:41:06;3.90;;;1.90;;
61897;SDS011;47850;50.274;18.908;2023-07-31T05:43:33;7.00;;;2.60;;
61897;SDS011;47850;50.274;18.908;2023-07-31T05:46:01;3.20;;;1.90;;
61897;SDS011;47850;50.274;18.908;2023-07-31T05:48:29;6.80;;;2.20;;
61897;SDS011;47850;50.274;18.908;2023-07-31T05:50:57;3.90;;;1.90;;
61897;SDS011;47850;50.274;18.908;2023-07-31T05:53:25;5.10;;;2.10;;
61897;SDS011;47850;50.274;18.908;2023-07-31T05:55:52;6.30;;;2.00;;
61897;SDS011;47850;50.274;18.908;2023-07-31T05:58:21;4.10;;;2.00;;
61897;SDS011;47850;50.274;18.908;2023-07-31T06:00:49;4.10;;;2.00;;
61897;SDS011;47850;50.274;18.908;2023-07-31T06:03:17;5.80;;;2.20;;
61897;SDS011;47850;50.274;18.908;2023-07-31T06:05:45;6.10;;;2.40;;
61897;SDS011;47850;50.274;18.908;2023-07-31T06:08:15;6.60;;;2.40;;
61897;SDS011;47850;50.274;18.908;2023-07-31T06:10:43;8.50;;;2.70;;
61897;SDS011;47850;50.274;18.908;2023-07-31T06:13:11;5.60;;;2.40;;
61897;SDS011;47850;50.274;18.908;2023-07-31T06:15:39;3.60;;;2.10;;
61897;SDS011;47850;50.274;18.908;2023-07-31T06:18:06;5.40;;;1.60;;
61897;SDS011;47850;50.274;18.908;2023-07-31T06:20:35;4.40;;;1.50;;
61897;SDS011;47850;50.274;18.908;2023-07-31T06:23:03;4.80;;;2.10;;
61897;SDS011;47850;50.274;18.908;2023-07-31T06:25:31;5.60;;;1.90;;
61897;SDS011;47850;50.274;18.908;2023-07-31T06:27:59;4.70;;;1.60;;
61897;SDS011;47850;50.274;18.908;2023-07-31T06:30:27;3.40;;;1.60;;
61897;SDS011;47850;50.274;18.908;2023-07-31T06:32:54;3.90;;;1.50;;
61897;SDS011;47850;50.274;18.908;2023-07-31T06:35:22;6.50;;;1.90;;
61897;SDS011;47850;50.274;18.908;2023-07-31T06:37:50;4.10;;;1.20;;
61897;SDS011;47850;50.274;18.908;2023-07-31T06:40:18;6.40;;;1.50;;
61897;SDS011;47850;50.274;18.908;2023-07-31T06:42:49;6.90;;;2.30;;
61897;SDS011;47850;50.274;18.908;2023-07-31T06:45:17;3.90;;;1.50;;
61897;SDS011;47850;50.274;18.908;2023-07-31T06:47:44;7.50;;;1.60;;
61897;SDS011;47850;50.274;18.908;2023-07-31T06:50:12;8.00;;;1.50;;
61897;SDS011;47850;50.274;18.908;2023-07-31T06:52:40;4.40;;;1.70;;
61897;SDS011;47850;50.274;18.908;2023-07-31T06:55:18;4.10;;;1.50;;
61897;SDS011;47850;50.274;18.908;2023-07-31T06:57:48;3.80;;;1.60;;
61897;SDS011;47850;50.274;18.908;2023-07-31T07:00:17;2.40;;;1.40;;
61897;SDS011;47850;50.274;18.908;2023-07-31T07:02:46;5.30;;;1.80;;
61897;SDS011;47850;50.274;18.908;2023-07-31T07:05:16;3.00;;;1.60;;
61897;SDS011;47850;50.274;18.908;2023-07-31T07:07:45;4.20;;;1.40;;
61897;SDS011;47850;50.274;18.908;2023-07-31T07:10:13;5.50;;;1.80;;
61897;SDS011;47850;50.274;18.908;2023-07-31T07:12:41;4.00;;;1.40;;
61897;SDS011;47850;50.274;18.908;2023-07-31T07:15:11;3.40;;;1.20;;
61897;SDS011;47850;50.274;18.908;2023-07-31T07:17:39;3.70;;;1.80;;
61897;SDS011;47850;50.274;18.908;2023-07-31T07:20:07;2.60;;;1.30;;
61897;SDS011;47850;50.274;18.908;2023-07-31T07:22:35;5.30;;;1.80;;
61897;SDS011;47850;50.274;18.908;2023-07-31T07:25:04;6.40;;;1.60;;
61897;SDS011;47850;50.274;18.908;2023-07-31T07:27:32;5.60;;;1.80;;
61897;SDS011;47850;50.274;18.908;2023-07-31T07:30:00;3.50;;;1.40;;
61897;SDS011;47850;50.274;18.908;2023-07-31T07:32:28;3.80;;;1.70;;
61897;SDS011;47850;50.274;18.908;2023-07-31T07:34:56;6.30;;;1.70;;
61897;SDS011;47850;50.274;18.908;2023-07-31T07:37:24;6.90;;;1.60;;
61897;SDS011;47850;50.274;18.908;2023-07-31T07:39:51;6.40;;;1.70;;
61897;SDS011;47850;50.274;18.908;2023-07-31T07:42:19;5.80;;;2.00;;
61897;SDS011;47850;50.274;18.908;2023-07-31T07:44:47;8.60;;;1.80;;
61897;SDS011;47850;50.274;18.908;2023-07-31T07:47:15;12.50;;;1.80;;
61897;SDS011;47850;50.274;18.908;2023-07-31T07:49:43;8.30;;;1.70;;
61897;SDS011;47850;50.274;18.908;2023-07-31T07:52:11;3.30;;;1.50;;
61897;SDS011;47850;50.274;18.908;2023-07-31T07:54:39;4.20;;;1.70;;
61897;SDS011;47850;50.274;18.908;2023-07-31T07:57:07;3.60;;;1.40;;
61897;SDS011;47850;50.274;18.908;2023-07-31T07:59:35;6.00;;;1.60;;
61897;SDS011;47850;50.274;18.908;2023-07-31T08:02:02;4.60;;;1.70;;
61897;SDS011;47850;50.274;18.908;2023-07-31T08:04:30;4.80;;;1.60;;
61897;SDS011;47850;50.274;18.908;2023-07-31T08:06:58;6.00;;;2.80;;
61897;SDS011;47850;50.274;18.908;2023-07-31T08:09:26;4.70;;;2.00;;
61897;SDS011;47850;50.274;18.908;2023-07-31T08:11:53;3.40;;;1.50;;
61897;SDS011;47850;50.274;18.908;2023-07-31T08:14:22;2.90;;;1.60;;
61897;SDS011;47850;50.274;18.908;2023-07-31T08:16:49;3.40;;;1.40;;
61897;SDS011;47850;50.274;18.908;2023-07-31T08:19:17;4.80;;;1.50;;
61897;SDS011;47850;50.274;18.908;2023-07-31T08:21:45;4.40;;;1.60;;
61897;SDS011;47850;50.274;18.908;2023-07-31T08:24:13;3.60;;;1.40;;
61897;SDS011;47850;50.274;18.908;2023-07-31T08:26:40;4.00;;;2.10;;
61897;SDS011;47850;50.274;18.908;2023-07-31T08:29:10;6.00;;;1.60;;
61897;SDS011;47850;50.274;18.908;2023-07-31T08:31:37;3.50;;;1.40;;
61897;SDS011;47850;50.274;18.908;2023-07-31T08:34:05;5.10;;;1.40;;
61897;SDS011;47850;50.274;18.908;2023-07-31T08:36:33;3.90;;;1.30;;
61897;SDS011;47850;50.274;18.908;2023-07-31T08:39:01;5.60;;;1.70;;
61897;SDS011;47850;50.274;18.908;2023-07-31T08:41:29;5.00;;;1.30;;
61897;SDS011;47850;50.274;18.908;2023-07-31T08:43:56;4.00;;;1.40;;
61897;SDS011;47850;50.274;18.908;2023-07-31T08:46:25;4.60;;;1.50;;
61897;SDS011;47850;50.274;18.908;2023-07-31T08:48:54;5.50;;;1.70;;
61897;SDS011;47850;50.274;18.908;2023-07-31T08:51:22;6.50;;;1.50;;
61897;SDS011;47850;50.274;18.908;2023-07-31T08:53:50;5.90;;;1.30;;
61897;SDS011;47850;50.274;18.908;2023-07-31T08:56:20;3.50;;;1.60;;
61897;SDS011;47850;50.274;18.908;2023-07-31T08:58:48;3.90;;;1.60;;
61897;SDS011;47850;50.274;18.908;2023-07-31T09:01:18;3.90;;;1.60;;
61897;SDS011;47850;50.274;18.908;2023-07-31T09:03:46;4.50;;;1.60;;
61897;SDS011;47850;50.274;18.908;2023-07-31T09:06:16;3.30;;;1.40;;
61897;SDS011;47850;50.274;18.908;2023-07-31T09:08:47;4.10;;;1.60;;
61897;SDS011;47850;50.274;18.908;2023-07-31T09:11:15;4.30;;;1.30;;
61897;SDS011;47850;50.274;18.908;2023-07-31T09:13:43;3.20;;;1.30;;
61897;SDS011;47850;50.274;18.908;2023-07-31T09:16:13;3.70;;;1.40;;
61897;SDS011;47850;50.274;18.908;2023-07-31T09:18:54;3.40;;;1.60;;
61897;SDS011;47850;50.274;18.908;2023-07-31T09:21:24;2.80;;;1.40;;
61897;SDS011;47850;50.274;18.908;2023-07-31T09:23:53;4.90;;;1.30;;
61897;SDS011;47850;50.274;18.908;2023-07-31T09:26:29;2.70;;;1.20;;
61897;SDS011;47850;50.274;18.908;2023-07-31T09:28:58;3.70;;;1.40;;
61897;SDS011;47850;50.274;18.908;2023-07-31T09:31:34;3.60;;;1.50;;
61897;SDS011;47850;50.274;18.908;2023-07-31T09:34:05;2.90;;;1.30;;
61897;SDS011;47850;50.274;18.908;2023-07-31T09:36:39;6.00;;;1.60;;
61897;SDS011;47850;50.274;18.908;2023-07-31T09:39:12;5.90;;;1.30;;
61897;SDS011;47850;50.274;18.908;2023-07-31T09:41:47;2.90;;;1.30;;
61897;SDS011;47850;50.274;18.908;2023-07-31T09:44:21;3.50;;;1.10;;
61897;SDS011;47850;50.274;18.908;2023-07-31T09:46:48;2.40;;;1.10;;
61897;SDS011;47850;50.274;18.908;2023-07-31T09:49:20;2.60;;;1.40;;
61897;SDS011;47850;50.274;18.908;2023-07-31T09:51:48;8.90;;;3.90;;
61897;SDS011;47850;50.274;18.908;2023-07-31T09:54:16;6.30;;;1.50;;
61897;SDS011;47850;50.274;18.908;2023-07-31T09:56:48;1.60;;;1.20;;
61897;SDS011;47850;50.274;18.908;2023-07-31T09:59:17;4.40;;;1.50;;
61897;SDS011;47850;50.274;18.908;2023-07-31T10:01:46;6.70;;;2.80;;
61897;SDS011;47850;50.274;18.908;2023-07-31T10:04:16;3.20;;;1.30;;
61897;SDS011;47850;50.274;18.908;2023-07-31T10:06:53;4.70;;;2.10;;
61897;SDS011;47850;50.274;18.908;2023-07-31T10:09:22;3.40;;;1.50;;
61897;SDS011;47850;50.274;18.908;2023-07-31T10:11:55;3.00;;;1.20;;
61897;SDS011;47850;50.274;18.908;2023-07-31T10:14:28;6.00;;;1.60;;
61897;SDS011;47850;50.274;18.908;2023-07-31T10:16:57;3.60;;;1.10;;
61897;SDS011;47850;50.274;18.908;2023-07-31T10:19:26;5.50;;;1.70;;
61897;SDS011;47850;50.274;18.908;2023-07-31T10:21:56;7.60;;;1.60;;
61897;SDS011;47850;50.274;18.908;2023-07-31T10:26:54;4.60;;;1.30;;
61897;SDS011;47850;50.274;18.908;2023-07-31T10:29:30;3.50;;;1.40;;
61897;SDS011;47850;50.274;18.908;2023-07-31T10:31:59;8.10;;;1.60;;
61897;SDS011;47850;50.274;18.908;2023-07-31T10:34:29;7.40;;;1.70;;
61897;SDS011;47850;50.274;18.908;2023-07-31T10:42:55;3.30;;;1.30;;
61897;SDS011;47850;50.274;18.908;2023-07-31T10:45:34;6.00;;;1.30;;
61897;SDS011;47850;50.274;18.908;2023-07-31T10:48:07;2.90;;;1.30;;
61897;SDS011;47850;50.274;18.908;2023-07-31T10:53:36;5.70;;;1.30;;
61897;SDS011;47850;50.274;18.908;2023-07-31T10:56:08;2.40;;;1.30;;
61897;SDS011;47850;50.274;18.908;2023-07-31T10:58:43;3.30;;;1.30;;
61897;SDS011;47850;50.274;18.908;2023-07-31T11:01:12;4.60;;;1.30;;
61897;SDS011;47850;50.274;18.908;2023-07-31T11:03:44;6.40;;;1.70;;
61897;SDS011;47850;50.274;18.908;2023-07-31T11:06:14;6.30;;;1.40;;
61897;SDS011;47850;50.274;18.908;2023-07-31T11:08:44;3.80;;;1.40;;
61897;SDS011;47850;50.274;18.908;2023-07-31T11:11:17;5.00;;;1.60;;
61897;SDS011;47850;50.274;18.908;2023-07-31T11:13:46;4.10;;;1.40;;
61897;SDS011;47850;50.274;18.908;2023-07-31T11:16:22;3.90;;;1.50;;
61897;SDS011;47850;50.274;18.908;2023-07-31T11:18:51;4.20;;;1.30;;
61897;SDS011;47850;50.274;18.908;2023-07-31T11:21:22;2.60;;;1.20;;
61897;SDS011;47850;50.274;18.908;2023-07-31T11:23:52;3.20;;;1.30;;
61897;SDS011;47850;50.274;18.908;2023-07-31T11:26:23;2.70;;;1.30;;
61897;SDS011;47850;50.274;18.908;2023-07-31T11:28:51;3.90;;;1.20;;
61897;SDS011;47850;50.274;18.908;2023-07-31T11:31:19;3.10;;;1.50;;
61897;SDS011;47850;50.274;18.908;2023-07-31T11:33:48;3.40;;;1.30;;
61897;SDS011;47850;50.274;18.908;2023-07-31T11:36:16;5.30;;;1.50;;
61897;SDS011;47850;50.274;18.908;2023-07-31T11:38:45;3.80;;;1.40;;
61897;SDS011;47850;50.274;18.908;2023-07-31T11:41:14;3.80;;;1.30;;
61897;SDS011;47850;50.274;18.908;2023-07-31T11:43:46;2.40;;;1.20;;
61897;SDS011;47850;50.274;18.908;2023-07-31T11:46:16;6.40;;;1.30;;
61897;SDS011;47850;50.274;18.908;2023-07-31T11:48:45;4.50;;;1.30;;
61897;SDS011;47850;50.274;18.908;2023-07-31T11:51:13;3.40;;;1.30;;
61897;SDS011;47850;50.274;18.908;2023-07-31T11:53:45;3.80;;;1.20;;
61897;SDS011;47850;50.274;18.908;2023-07-31T11:56:18;1.90;;;1.10;;
61897;SDS011;47850;50.274;18.908;2023-07-31T11:58:48;2.60;;;1.20;;
61897;SDS011;47850;50.274;18.908;2023-07-31T12:01:19;3.20;;;1.20;;
61897;SDS011;47850;50.274;18.908;2023-07-31T12:06:17;2.80;;;1.20;;
61897;SDS011;47850;50.274;18.908;2023-07-31T12:08:45;2.90;;;1.10;;
61897;SDS011;47850;50.274;18.908;2023-07-31T12:11:12;3.70;;;1.30;;
61897;SDS011;47850;50.274;18.908;2023-07-31T12:13:45;5.50;;;1.30;;
61897;SDS011;47850;50.274;18.908;2023-07-31T12:16:13;5.10;;;1.30;;
61897;SDS011;47850;50.274;18.908;2023-07-31T12:18:40;4.30;;;1.20;;
61897;SDS011;47850;50.274;18.908;2023-07-31T12:21:08;6.00;;;1.30;;
61897;SDS011;47850;50.274;18.908;2023-07-31T12:23:41;9.00;;;1.40;;
61897;SDS011;47850;50.274;18.908;2023-07-31T12:26:13;4.10;;;1.30;;
61897;SDS011;47850;50.274;18.908;2023-07-31T12:28:44;4.00;;;1.60;;
61897;SDS011;47850;50.274;18.908;2023-07-31T12:31:16;5.60;;;1.30;;
61897;SDS011;47850;50.274;18.908;2023-07-31T12:33:45;4.50;;;1.40;;
61897;SDS011;47850;50.274;18.908;2023-07-31T12:36:15;2.60;;;1.30;;
61897;SDS011;47850;50.274;18.908;2023-07-31T12:38:45;4.50;;;1.30;;
61897;SDS011;47850;50.274;18.908;2023-07-31T12:41:13;6.60;;;1.40;;
61897;SDS011;47850;50.274;18.908;2023-07-31T12:43:42;3.70;;;1.50;;
61897;SDS011;47850;50.274;18.908;2023-07-31T12:46:11;3.50;;;1.20;;
61897;SDS011;47850;50.274;18.908;2023-07-31T12:48:40;2.60;;;1.30;;
61897;SDS011;47850;50.274;18.908;2023-07-31T12:51:08;3.50;;;1.30;;
61897;SDS011;47850;50.274;18.908;2023-07-31T12:53:36;6.20;;;1.50;;
61897;SDS011;47850;50.274;18.908;2023-07-31T12:56:04;3.80;;;1.30;;
61897;SDS011;47850;50.274;18.908;2023-07-31T12:58:32;2.80;;;1.10;;
61897;SDS011;47850;50.274;18.908;2023-07-31T13:00:59;5.20;;;1.40;;
61897;SDS011;47850;50.274;18.908;2023-07-31T13:03:29;3.40;;;1.40;;
61897;SDS011;47850;50.274;18.908;2023-07-31T13:05:57;3.10;;;1.40;;
61897;SDS011;47850;50.274;18.908;2023-07-31T13:08:25;7.00;;;1.40;;
61897;SDS011;47850;50.274;18.908;2023-07-31T13:10:52;4.70;;;1.30;;
61897;SDS011;47850;50.274;18.908;2023-07-31T13:13:20;4.00;;;1.20;;
61897;SDS011;47850;50.274;18.908;2023-07-31T13:15:49;2.20;;;1.10;;
61897;SDS011;47850;50.274;18.908;2023-07-31T13:18:17;4.90;;;1.40;;
61897;SDS011;47850;50.274;18.908;2023-07-31T13:20:45;3.20;;;1.60;;
61897;SDS011;47850;50.274;18.908;2023-07-31T13:23:12;5.30;;;1.30;;
61897;SDS011;47850;50.274;18.908;2023-07-31T13:25:40;4.20;;;1.40;;
61897;SDS011;47850;50.274;18.908;2023-07-31T13:28:08;5.30;;;1.30;;
61897;SDS011;47850;50.274;18.908;2023-07-31T13:30:36;2.80;;;1.30;;
61897;SDS011;47850;50.274;18.908;2023-07-31T13:33:04;3.60;;;1.10;;
61897;SDS011;47850;50.274;18.908;2023-07-31T13:35:31;4.00;;;1.30;;
61897;SDS011;47850;50.274;18.908;2023-07-31T13:37:59;4.70;;;1.40;;
61897;SDS011;47850;50.274;18.908;2023-07-31T13:40:27;3.50;;;1.30;;
61897;SDS011;47850;50.274;18.908;2023-07-31T13:42:55;8.70;;;1.50;;
61897;SDS011;47850;50.274;18.908;2023-07-31T13:45:23;7.50;;;1.60;;
61897;SDS011;47850;50.274;18.908;2023-07-31T13:47:50;5.30;;;1.70;;
61897;SDS011;47850;50.274;18.908;2023-07-31T13:50:19;3.20;;;1.40;;
61897;SDS011;47850;50.274;18.908;2023-07-31T13:52:48;6.30;;;1.50;;
61897;SDS011;47850;50.274;18.908;2023-07-31T13:55:16;4.80;;;1.60;;
61897;SDS011;47850;50.274;18.908;2023-07-31T13:57:44;3.90;;;1.40;;
61897;SDS011;47850;50.274;18.908;2023-07-31T14:00:13;4.30;;;1.20;;
61897;SDS011;47850;50.274;18.908;2023-07-31T14:02:41;3.50;;;1.40;;
61897;SDS011;47850;50.274;18.908;2023-07-31T14:05:08;3.90;;;1.00;;
61897;SDS011;47850;50.274;18.908;2023-07-31T14:07:37;6.50;;;1.60;;
61897;SDS011;47850;50.274;18.908;2023-07-31T14:10:04;6.40;;;1.40;;
61897;SDS011;47850;50.274;18.908;2023-07-31T14:12:33;5.20;;;1.20;;
61897;SDS011;47850;50.274;18.908;2023-07-31T14:15:00;4.50;;;1.30;;
61897;SDS011;47850;50.274;18.908;2023-07-31T14:17:28;5.20;;;1.30;;
61897;SDS011;47850;50.274;18.908;2023-07-31T14:19:56;4.30;;;1.40;;
61897;SDS011;47850;50.274;18.908;2023-07-31T14:22:27;2.20;;;1.30;;
61897;SDS011;47850;50.274;18.908;2023-07-31T14:24:58;6.60;;;1.40;;
61897;SDS011;47850;50.274;18.908;2023-07-31T14:27:26;3.90;;;1.30;;
61897;SDS011;47850;50.274;18.908;2023-07-31T14:29:54;3.00;;;1.20;;
61897;SDS011;47850;50.274;18.908;2023-07-31T14:32:22;5.20;;;1.60;;
61897;SDS011;47850;50.274;18.908;2023-07-31T14:34:53;6.20;;;1.30;;
61897;SDS011;47850;50.274;18.908;2023-07-31T14:37:22;3.80;;;1.30;;
61897;SDS011;47850;50.274;18.908;2023-07-31T14:39:50;3.20;;;1.20;;
61897;SDS011;47850;50.274;18.908;2023-07-31T14:42:18;3.60;;;1.20;;
61897;SDS011;47850;50.274;18.908;2023-07-31T14:44:46;7.30;;;1.40;;
61897;SDS011;47850;50.274;18.908;2023-07-31T14:47:15;12.40;;;1.40;;
61897;SDS011;47850;50.274;18.908;2023-07-31T14:49:42;4.30;;;1.70;;
61897;SDS011;47850;50.274;18.908;2023-07-31T14:52:10;6.30;;;1.50;;
61897;SDS011;47850;50.274;18.908;2023-07-31T14:54:38;4.70;;;1.60;;
61897;SDS011;47850;50.274;18.908;2023-07-31T14:57:05;9.00;;;1.60;;
61897;SDS011;47850;50.274;18.908;2023-07-31T14:59:33;5.90;;;1.50;;